EGPH/EDI METAR and TAF weather

Enter ICAO airport designator
Station Type Date Time Source
EGPH METAR 2019/06/18 12:50 UTC NOAA

EGPH 181250Z 23016KT 9999 BKN029 16/09 Q1010


Station Type Date Time Source
EGPH Decoded METAR 2019/06/18 12:50 UTC NOAA

Edinburgh Airport, United Kingdom (EGPH) 55-57N 003-21W 0M
Jun 18, 2019 - 08:50 AM EDT / 2019.06.18 1250 UTC
Wind: from the SW (230 degrees) at 18 MPH (16 KT):0
Visibility: greater than 7 mile(s):0
Sky conditions: mostly cloudy
Temperature: 60 F (16 C)
Dew Point: 48 F (9 C)
Relative Humidity: 63%
Pressure (altimeter): 29.83 in. Hg (1010 hPa)
ob: EGPH 181250Z 23016KT 9999 BKN029 16/09 Q1010
cycle: 13

Station Type Date Time Source
EGPH TAF 2019/06/18 12:09 UTC NOAA

TAF EGPH 181056Z 1812/1912 24018G28KT 9999 SCT030 PROB30
TEMPO 1813/1820 7000 SHRA
BECMG 1814/1817 24014KT
BECMG 1818/1821 23004KT

Example: see airport list